createdAt,value
2023-02-07T00:01:20.223Z,14.98
2023-02-07T00:03:47.780Z,14.75
2023-02-07T00:06:20.053Z,15.25
2023-02-07T00:08:47.246Z,14.90
2023-02-07T00:11:17.193Z,15.90
2023-02-07T00:16:11.886Z,15.13
2023-02-07T00:18:39.063Z,15.13
2023-02-07T00:21:11.614Z,16.83
2023-02-07T00:23:39.234Z,16.52
2023-02-07T00:26:07.634Z,15.68
2023-02-07T00:28:35.406Z,16.20
2023-02-07T00:31:12.049Z,15.75
2023-02-07T00:33:40.239Z,15.38
2023-02-07T00:36:10.086Z,16.17
2023-02-07T00:38:36.915Z,15.88
2023-02-07T00:41:03.926Z,15.90
2023-02-07T00:43:30.776Z,15.95
2023-02-07T00:45:59.561Z,15.68
2023-02-07T00:48:30.528Z,15.20
2023-02-07T00:50:58.142Z,15.23
2023-02-07T00:53:25.902Z,15.77
2023-02-07T00:55:53.200Z,15.57
2023-02-07T00:58:20.281Z,15.77
2023-02-07T01:00:47.367Z,16.17
2023-02-07T01:03:14.141Z,15.25
2023-02-07T01:05:41.078Z,15.68
2023-02-07T01:08:08.137Z,15.63
2023-02-07T01:10:35.165Z,16.02
2023-02-07T01:13:01.977Z,15.60
2023-02-07T01:15:28.719Z,15.18
2023-02-07T01:17:55.491Z,15.88
2023-02-07T01:20:22.317Z,14.75
2023-02-07T01:22:49.054Z,15.18
2023-02-07T01:30:16.164Z,15.00
2023-02-07T01:32:42.895Z,15.30
2023-02-07T01:35:09.638Z,16.25
2023-02-07T01:37:36.442Z,14.25
2023-02-07T01:40:04.038Z,14.15
2023-02-07T01:42:30.803Z,15.18
2023-02-07T01:45:05.240Z,14.68
2023-02-07T01:47:33.751Z,14.45
2023-02-07T01:50:01.049Z,14.35
2023-02-07T01:52:38.710Z,14.07
2023-02-07T01:55:10.916Z,14.52
2023-02-07T01:57:38.665Z,14.00
2023-02-07T02:00:06.127Z,14.00
2023-02-07T02:02:36.204Z,14.35
2023-02-07T02:05:04.410Z,13.18
2023-02-07T02:07:32.874Z,13.15
2023-02-07T02:10:00.929Z,13.90
2023-02-07T02:12:36.937Z,13.98
2023-02-07T02:15:32.665Z,13.60
2023-02-07T02:18:22.769Z,14.27
2023-02-07T02:21:11.040Z,14.20
2023-02-07T02:24:22.627Z,14.20
2023-02-07T02:27:11.224Z,14.05
2023-02-07T02:29:50.101Z,14.07
2023-02-07T02:32:54.541Z,14.15
2023-02-07T02:35:39.687Z,13.57
2023-02-07T02:38:23.643Z,14.18
2023-02-07T02:41:02.109Z,13.38
2023-02-07T02:43:28.784Z,13.32
2023-02-07T02:45:59.515Z,14.00
2023-02-07T02:48:28.774Z,13.57
2023-02-07T02:50:56.585Z,14.13
2023-02-07T02:53:23.886Z,13.90
2023-02-07T02:55:56.402Z,13.60
2023-02-07T02:58:29.662Z,13.98
2023-02-07T03:00:59.182Z,13.05
2023-02-07T03:03:25.867Z,13.15
2023-02-07T03:06:15.182Z,13.23
2023-02-07T03:08:58.119Z,13.90
2023-02-07T03:11:26.485Z,13.10
2023-02-07T03:14:02.191Z,13.75
2023-02-07T03:16:51.882Z,13.02
2023-02-07T03:19:23.907Z,13.23
2023-02-07T03:21:54.384Z,13.10
2023-02-07T03:24:32.056Z,12.50
2023-02-07T03:27:02.353Z,12.52
2023-02-07T03:29:31.670Z,13.13
2023-02-07T03:32:01.956Z,12.95
2023-02-07T03:35:00.638Z,12.60
2023-02-07T03:37:41.089Z,13.00
2023-02-07T03:40:09.191Z,12.25
2023-02-07T03:42:42.423Z,12.65
2023-02-07T03:45:14.272Z,11.73
2023-02-07T03:47:40.982Z,12.52
2023-02-07T03:50:08.000Z,11.98
2023-02-07T03:52:34.717Z,12.30
2023-02-07T03:55:01.440Z,12.63
2023-02-07T03:57:28.146Z,12.48
2023-02-07T03:59:55.235Z,12.40
2023-02-07T04:02:22.007Z,12.80
2023-02-07T04:04:48.742Z,12.88
2023-02-07T04:07:15.739Z,12.63
2023-02-07T04:09:42.570Z,13.25
2023-02-07T04:12:09.370Z,12.43
2023-02-07T04:14:36.111Z,12.77
2023-02-07T04:17:02.829Z,12.80
2023-02-07T04:19:29.532Z,12.68
2023-02-07T04:21:56.334Z,12.40
2023-02-07T04:24:23.137Z,13.65
2023-02-07T04:26:50.001Z,13.40
2023-02-07T04:29:16.765Z,13.07
2023-02-07T04:31:43.608Z,12.98
2023-02-07T04:34:10.394Z,13.02
2023-02-07T04:36:37.128Z,12.60
2023-02-07T04:39:04.099Z,13.23
2023-02-07T04:41:31.026Z,13.40
2023-02-07T04:43:57.826Z,13.70
2023-02-07T04:46:24.581Z,13.43
2023-02-07T04:48:51.320Z,13.35
2023-02-07T04:51:18.032Z,14.65
2023-02-07T04:53:44.766Z,14.30
2023-02-07T04:56:11.523Z,13.00
2023-02-07T04:58:38.369Z,13.55
2023-02-07T05:01:05.201Z,13.60
2023-02-07T05:03:31.920Z,12.95
2023-02-07T05:05:58.735Z,14.02
2023-02-07T05:08:26.372Z,14.68
2023-02-07T05:10:56.624Z,14.02
2023-02-07T05:13:24.297Z,13.70
2023-02-07T05:15:51.614Z,14.52
2023-02-07T05:18:18.590Z,12.95
2023-02-07T05:20:45.350Z,13.20
2023-02-07T05:23:12.256Z,13.32
2023-02-07T05:25:40.896Z,13.80
2023-02-07T05:28:07.820Z,13.32
2023-02-07T05:30:34.679Z,13.40
2023-02-07T05:33:07.381Z,13.20
2023-02-07T05:35:42.997Z,12.57
2023-02-07T05:38:12.941Z,13.68
2023-02-07T05:40:40.610Z,13.93
2023-02-07T05:43:07.826Z,14.00
2023-02-07T05:45:35.249Z,15.02
2023-02-07T05:48:02.715Z,14.48
2023-02-07T05:50:29.565Z,14.85
2023-02-07T05:52:56.308Z,14.82
2023-02-07T05:55:23.061Z,13.90
2023-02-07T05:57:49.768Z,14.18
2023-02-07T06:00:18.624Z,14.85
2023-02-07T06:02:45.899Z,15.10
2023-02-07T06:05:16.529Z,14.63
2023-02-07T06:07:45.092Z,14.55
2023-02-07T06:10:12.578Z,14.55
2023-02-07T06:12:40.097Z,14.45
2023-02-07T06:15:07.170Z,14.60
2023-02-07T06:17:33.928Z,14.30
2023-02-07T06:20:00.647Z,14.18
2023-02-07T06:22:27.443Z,15.13
2023-02-07T06:24:54.200Z,13.85
2023-02-07T06:27:21.137Z,14.82
2023-02-07T06:29:47.843Z,14.30
2023-02-07T06:32:14.543Z,13.75
2023-02-07T06:34:41.470Z,14.38
2023-02-07T06:37:08.256Z,13.75
2023-02-07T06:39:35.004Z,13.77
2023-02-07T06:42:01.827Z,13.13
2023-02-07T06:44:28.522Z,14.95
2023-02-07T06:46:55.223Z,14.25
2023-02-07T06:49:21.902Z,13.80
2023-02-07T06:51:48.635Z,13.50
2023-02-07T06:54:15.393Z,12.82
2023-02-07T06:56:42.237Z,13.15
2023-02-07T06:59:08.989Z,14.07
2023-02-07T07:01:35.767Z,14.35
2023-02-07T07:04:02.474Z,13.80
2023-02-07T07:06:29.214Z,14.00
2023-02-07T07:08:56.037Z,14.40
2023-02-07T07:11:22.850Z,13.65
2023-02-07T07:13:49.620Z,13.27
2023-02-07T07:16:16.414Z,13.43
2023-02-07T07:18:43.321Z,13.07
2023-02-07T07:21:10.486Z,13.65
2023-02-07T07:23:37.268Z,14.02
2023-02-07T07:26:04.279Z,14.10
2023-02-07T07:31:07.329Z,13.38
2023-02-07T07:33:35.641Z,13.32
2023-02-07T07:36:03.863Z,13.23
2023-02-07T07:38:31.468Z,13.32
2023-02-07T07:40:58.729Z,12.82
2023-02-07T07:43:26.422Z,12.50
2023-02-07T07:45:55.067Z,12.40
2023-02-07T07:48:23.447Z,12.00
2023-02-07T07:50:50.692Z,13.73
2023-02-07T07:53:18.605Z,13.68
2023-02-07T07:55:50.474Z,13.50
2023-02-07T07:58:17.883Z,13.57
2023-02-07T08:00:45.355Z,12.48
2023-02-07T08:03:13.495Z,12.02
2023-02-07T08:05:40.556Z,11.82
2023-02-07T08:08:07.667Z,12.15
2023-02-07T08:10:34.682Z,11.80
2023-02-07T08:13:01.489Z,11.77
2023-02-07T08:15:28.791Z,11.25
2023-02-07T08:17:55.481Z,11.40
2023-02-07T08:20:22.242Z,11.65
2023-02-07T08:22:49.363Z,12.18
2023-02-07T08:25:16.367Z,11.75
2023-02-07T08:27:43.479Z,12.18
2023-02-07T08:30:13.970Z,12.00
2023-02-07T08:32:42.333Z,11.70
2023-02-07T08:35:09.783Z,12.60
2023-02-07T08:37:36.965Z,11.77
2023-02-07T08:40:05.530Z,11.88
2023-02-07T08:42:32.577Z,11.27
2023-02-07T08:44:59.298Z,11.70
2023-02-07T08:47:26.058Z,12.20
2023-02-07T08:49:52.798Z,11.88
2023-02-07T08:52:19.530Z,11.82
2023-02-07T08:54:46.229Z,11.90
2023-02-07T08:57:13.180Z,11.77
2023-02-07T08:59:39.901Z,12.45
2023-02-07T09:02:07.145Z,12.23
2023-02-07T09:04:36.370Z,12.65
2023-02-07T09:07:03.454Z,12.43
2023-02-07T09:09:33.102Z,12.27
2023-02-07T09:11:59.865Z,12.57
2023-02-07T09:14:26.588Z,10.88
2023-02-07T09:16:53.475Z,11.93
2023-02-07T09:19:20.390Z,11.38
2023-02-07T09:21:48.190Z,11.25
2023-02-07T09:24:15.025Z,11.63
2023-02-07T09:26:41.861Z,11.23
2023-02-07T09:29:11.441Z,11.00
2023-02-07T09:31:38.205Z,12.05
2023-02-07T09:34:05.339Z,11.40
2023-02-07T09:36:33.155Z,11.10
2023-02-07T09:39:00.356Z,11.55
2023-02-07T09:41:45.209Z,11.15
2023-02-07T09:44:42.880Z,11.07
2023-02-07T09:47:15.809Z,11.10
2023-02-07T09:50:22.958Z,11.63
2023-02-07T09:52:58.341Z,11.55
2023-02-07T09:55:44.967Z,11.65
2023-02-07T09:58:20.300Z,11.98
2023-02-07T10:01:02.453Z,12.75
2023-02-07T10:03:29.938Z,12.45
2023-02-07T10:06:17.456Z,12.10
2023-02-07T10:08:49.759Z,11.88
2023-02-07T10:11:25.553Z,13.43
2023-02-07T10:14:30.657Z,12.25
2023-02-07T10:17:32.327Z,13.35
2023-02-07T10:20:37.165Z,13.30
2023-02-07T10:23:29.777Z,12.73
2023-02-07T10:26:22.777Z,12.75
2023-02-07T10:29:04.420Z,12.43
2023-02-07T10:31:34.330Z,12.50
2023-02-07T10:34:10.681Z,12.45
2023-02-07T10:36:39.526Z,11.82
2023-02-07T10:39:11.349Z,12.93
2023-02-07T10:41:44.830Z,12.73
2023-02-07T10:44:19.342Z,11.70
2023-02-07T10:46:51.122Z,12.27
2023-02-07T10:49:29.398Z,11.40
2023-02-07T10:51:58.735Z,12.27
2023-02-07T10:54:25.899Z,11.87
2023-02-07T10:57:03.079Z,12.30
2023-02-07T10:59:46.060Z,12.23
2023-02-07T11:02:49.736Z,12.38
2023-02-07T11:05:16.453Z,12.35
2023-02-07T11:08:01.761Z,11.95
2023-02-07T11:10:40.438Z,11.85
2023-02-07T11:13:14.408Z,11.55
2023-02-07T11:15:56.923Z,11.80
2023-02-07T11:18:29.422Z,12.10
2023-02-07T11:20:56.398Z,11.55
2023-02-07T11:23:24.057Z,11.38
2023-02-07T11:25:55.188Z,11.40
2023-02-07T11:28:23.777Z,11.00
2023-02-07T11:31:03.196Z,10.52
2023-02-07T11:33:33.139Z,10.27
2023-02-07T11:36:10.360Z,10.63
2023-02-07T11:38:46.255Z,10.57
2023-02-07T11:41:28.184Z,9.52
2023-02-07T11:44:15.966Z,10.07
2023-02-07T11:46:46.418Z,9.98
2023-02-07T11:49:43.042Z,9.48
2023-02-07T11:52:10.530Z,9.45
2023-02-07T11:54:40.966Z,9.90
2023-02-07T11:57:16.846Z,9.88
2023-02-07T12:00:17.094Z,9.75
2023-02-07T12:05:22.700Z,9.05
2023-02-07T12:07:58.396Z,10.10
2023-02-07T12:10:35.641Z,8.98
2023-02-07T12:13:21.958Z,8.65
2023-02-07T12:15:54.082Z,9.60
2023-02-07T12:18:36.265Z,8.15
2023-02-07T12:21:23.754Z,7.68
2023-02-07T12:24:12.034Z,7.78
2023-02-07T12:26:47.974Z,7.72
2023-02-07T12:29:33.176Z,7.50
2023-02-07T12:32:11.518Z,6.32
2023-02-07T12:34:41.410Z,6.45
2023-02-07T12:37:26.533Z,4.90
2023-02-07T12:40:25.272Z,4.47
2023-02-07T12:42:57.986Z,4.40
2023-02-07T12:45:34.911Z,4.30
2023-02-07T12:48:20.226Z,4.22
2023-02-07T12:51:06.548Z,5.05
2023-02-07T12:53:56.624Z,5.18
2023-02-07T12:56:28.974Z,5.22
2023-02-07T12:58:55.663Z,4.93
2023-02-07T13:02:00.516Z,5.00
2023-02-07T13:04:58.410Z,4.80
2023-02-07T13:07:43.982Z,5.45
2023-02-07T13:10:36.332Z,4.95
2023-02-07T13:13:20.562Z,4.90
2023-02-07T13:16:40.545Z,4.72
2023-02-07T13:19:39.666Z,4.93
2023-02-07T13:22:18.614Z,4.93
2023-02-07T13:24:47.116Z,5.03
2023-02-07T13:27:18.825Z,5.25
2023-02-07T13:29:48.063Z,5.63
2023-02-07T13:32:24.410Z,5.40
2023-02-07T13:34:56.852Z,5.70
2023-02-07T13:37:35.871Z,5.38
2023-02-07T13:40:39.173Z,5.00
2023-02-07T13:43:38.281Z,5.30
2023-02-07T13:46:24.009Z,5.22
2023-02-07T13:49:01.634Z,5.38
2023-02-07T13:52:01.261Z,5.53
2023-02-07T13:55:00.119Z,5.50
2023-02-07T13:58:05.715Z,5.82
2023-02-07T14:00:59.070Z,5.40
2023-02-07T14:03:35.042Z,5.18
2023-02-07T14:06:22.367Z,5.47
2023-02-07T14:09:05.078Z,6.00
2023-02-07T14:11:45.422Z,5.75
2023-02-07T14:14:25.533Z,6.30
2023-02-07T14:16:58.356Z,6.80
2023-02-07T14:19:40.421Z,6.07
2023-02-07T14:22:27.091Z,7.13
2023-02-07T14:24:59.752Z,8.65
2023-02-07T14:27:38.398Z,9.02
2023-02-07T14:30:43.313Z,9.40
2023-02-07T14:33:17.267Z,9.18
2023-02-07T14:36:12.591Z,9.68
2023-02-07T14:38:59.515Z,9.65
2023-02-07T14:41:32.410Z,9.40
2023-02-07T14:44:09.208Z,10.10
2023-02-07T14:46:48.889Z,9.45
2023-02-07T14:49:39.198Z,10.07
2023-02-07T14:52:11.889Z,10.32
2023-02-07T14:54:49.996Z,9.85
2023-02-07T14:57:49.134Z,9.85
2023-02-07T15:00:15.822Z,10.18
2023-02-07T15:02:54.804Z,10.18
2023-02-07T15:05:36.775Z,9.10
2023-02-07T15:08:03.438Z,8.85
2023-02-07T15:10:35.316Z,8.95
2023-02-07T15:13:05.281Z,9.90
2023-02-07T15:15:56.816Z,9.10
2023-02-07T15:18:26.898Z,8.95
2023-02-07T15:20:58.362Z,9.45
2023-02-07T15:23:28.438Z,9.00
2023-02-07T15:25:55.331Z,8.80
2023-02-07T15:28:28.152Z,9.18
2023-02-07T15:31:02.192Z,9.13
2023-02-07T15:33:51.129Z,8.90
2023-02-07T15:36:39.225Z,9.45
2023-02-07T15:39:24.120Z,9.25
2023-02-07T15:41:52.885Z,9.25
2023-02-07T15:44:25.030Z,9.13
2023-02-07T15:46:51.721Z,9.20
2023-02-07T15:49:45.954Z,9.77
2023-02-07T15:52:48.281Z,8.68
2023-02-07T15:55:32.176Z,9.52
2023-02-07T15:57:59.383Z,9.63
2023-02-07T16:00:39.221Z,9.48
2023-02-07T16:03:08.806Z,10.35
2023-02-07T16:05:37.983Z,10.13
2023-02-07T16:08:08.997Z,11.07
2023-02-07T16:10:40.344Z,11.13
2023-02-07T16:13:07.129Z,10.77
2023-02-07T16:15:38.029Z,11.40
2023-02-07T16:18:06.544Z,11.73
2023-02-07T16:20:36.003Z,11.80
2023-02-07T16:23:06.825Z,11.60
2023-02-07T16:25:35.114Z,11.32
2023-02-07T16:28:13.911Z,11.65
2023-02-07T16:30:41.589Z,10.98
2023-02-07T16:33:13.034Z,11.73
2023-02-07T16:35:39.760Z,10.75
2023-02-07T16:38:06.483Z,10.40
2023-02-07T16:40:33.320Z,10.50
2023-02-07T16:43:02.270Z,11.43
2023-02-07T16:45:29.841Z,11.23
2023-02-07T16:47:58.842Z,10.35
2023-02-07T16:50:28.130Z,10.75
2023-02-07T16:52:57.009Z,11.00
2023-02-07T16:55:26.423Z,10.50
2023-02-07T16:57:54.751Z,10.88
2023-02-07T17:00:26.256Z,10.40
2023-02-07T17:02:53.679Z,10.75
2023-02-07T17:05:24.044Z,10.52
2023-02-07T17:07:51.102Z,10.55
2023-02-07T17:10:30.566Z,11.10
2023-02-07T17:12:57.399Z,10.20
2023-02-07T17:15:24.193Z,9.88
2023-02-07T17:17:53.016Z,9.85
2023-02-07T17:20:25.817Z,9.90
2023-02-07T17:22:53.332Z,9.95
2023-02-07T17:25:21.940Z,10.43
2023-02-07T17:27:49.131Z,10.07
2023-02-07T17:30:19.415Z,10.52
2023-02-07T17:32:46.418Z,10.38
2023-02-07T17:35:14.089Z,10.68
2023-02-07T17:37:40.938Z,10.98
2023-02-07T17:40:32.682Z,10.60
2023-02-07T17:42:59.748Z,11.05
2023-02-07T17:45:28.781Z,10.48
2023-02-07T17:47:58.818Z,10.88
2023-02-07T17:52:57.594Z,10.57
2023-02-07T17:55:24.843Z,10.45
2023-02-07T17:57:51.605Z,11.77
2023-02-07T18:00:23.118Z,9.80
2023-02-07T18:02:50.163Z,9.90
2023-02-07T18:05:17.755Z,10.85
2023-02-07T18:07:46.122Z,10.07
2023-02-07T18:10:18.927Z,10.05
2023-02-07T18:12:45.884Z,10.90
2023-02-07T18:15:13.465Z,10.95
2023-02-07T18:17:40.792Z,10.35
2023-02-07T18:20:10.949Z,10.25
2023-02-07T18:22:37.973Z,9.95
2023-02-07T18:25:04.986Z,10.45
2023-02-07T18:27:34.998Z,10.55
2023-02-07T18:30:02.528Z,10.18
2023-02-07T18:32:29.603Z,10.73
2023-02-07T18:34:56.434Z,10.13
2023-02-07T18:37:23.227Z,10.38
2023-02-07T18:39:49.998Z,9.38
2023-02-07T18:42:17.900Z,10.43
2023-02-07T18:44:44.839Z,11.15
2023-02-07T18:47:11.850Z,10.68
2023-02-07T18:49:38.683Z,10.68
2023-02-07T18:52:05.495Z,10.70
2023-02-07T18:54:32.331Z,10.75
2023-02-07T18:56:59.077Z,11.45
2023-02-07T18:59:25.840Z,10.80
2023-02-07T19:01:53.631Z,10.15
2023-02-07T19:04:21.149Z,10.63
2023-02-07T19:06:51.740Z,10.82
2023-02-07T19:09:20.337Z,11.35
2023-02-07T19:11:50.509Z,11.32
2023-02-07T19:14:20.937Z,10.77
2023-02-07T19:16:49.495Z,11.23
2023-02-07T19:19:16.253Z,10.73
2023-02-07T19:21:43.575Z,11.48
2023-02-07T19:24:18.234Z,11.00
2023-02-07T19:26:50.192Z,10.93
2023-02-07T19:29:28.028Z,10.18
2023-02-07T19:32:03.631Z,11.73
2023-02-07T19:34:30.827Z,11.30
2023-02-07T19:36:57.641Z,10.65
2023-02-07T19:39:24.548Z,11.20
2023-02-07T19:41:52.105Z,11.15
2023-02-07T19:44:18.813Z,11.13
2023-02-07T19:46:46.048Z,11.68
2023-02-07T19:49:14.334Z,11.60
2023-02-07T19:51:41.414Z,11.57
2023-02-07T19:54:08.689Z,11.80
2023-02-07T19:56:36.594Z,11.63
2023-02-07T19:59:05.317Z,11.55
2023-02-07T20:01:34.212Z,12.40
2023-02-07T20:04:01.213Z,11.32
2023-02-07T20:06:32.860Z,11.77
2023-02-07T20:09:02.572Z,12.57
2023-02-07T20:11:29.347Z,11.82
2023-02-07T20:14:03.286Z,12.13
2023-02-07T20:16:33.693Z,11.50
2023-02-07T20:19:01.084Z,12.25
2023-02-07T20:21:30.028Z,11.82
2023-02-07T20:23:57.742Z,11.82
2023-02-07T20:26:29.753Z,11.70
2023-02-07T20:29:03.236Z,11.27
2023-02-07T20:31:31.838Z,11.73
2023-02-07T20:33:59.567Z,10.60
2023-02-07T20:36:26.776Z,10.70
2023-02-07T20:38:55.602Z,10.55
2023-02-07T20:41:30.676Z,11.00
2023-02-07T20:44:04.791Z,10.30
2023-02-07T20:46:34.284Z,11.43
2023-02-07T20:49:04.609Z,10.93
2023-02-07T20:51:31.646Z,10.48
2023-02-07T20:54:01.486Z,11.07
2023-02-07T20:56:28.996Z,11.32
2023-02-07T20:58:55.786Z,10.85
2023-02-07T21:01:24.659Z,10.52
2023-02-07T21:03:53.361Z,10.43
2023-02-07T21:06:22.877Z,10.48
2023-02-07T21:08:53.231Z,10.40
2023-02-07T21:11:20.300Z,10.40
2023-02-07T21:13:51.124Z,10.02
2023-02-07T21:16:20.551Z,10.48
2023-02-07T21:18:47.893Z,9.77
2023-02-07T21:21:15.675Z,10.60
2023-02-07T21:23:42.534Z,8.95
2023-02-07T21:26:12.338Z,9.68
2023-02-07T21:28:39.303Z,10.15
2023-02-07T21:31:14.302Z,9.50
2023-02-07T21:33:41.079Z,9.98
2023-02-07T21:36:10.499Z,10.00
2023-02-07T21:38:39.870Z,9.35
2023-02-07T21:41:09.457Z,9.85
2023-02-07T21:43:36.825Z,9.63
2023-02-07T21:46:25.291Z,9.50
2023-02-07T21:48:56.461Z,9.30
2023-02-07T21:51:25.506Z,9.77
2023-02-07T21:53:54.307Z,10.93
2023-02-07T21:56:25.000Z,9.30
2023-02-07T21:59:00.760Z,9.57
2023-02-07T22:01:28.774Z,9.40
2023-02-07T22:03:58.230Z,10.27
2023-02-07T22:06:25.013Z,9.82
2023-02-07T22:08:54.519Z,10.68
2023-02-07T22:11:22.598Z,9.65
2023-02-07T22:13:52.302Z,10.23
2023-02-07T22:16:21.706Z,9.85
2023-02-07T22:18:49.130Z,9.77
2023-02-07T22:21:21.374Z,10.40
2023-02-07T22:23:48.812Z,10.30
2023-02-07T22:26:15.934Z,9.80
2023-02-07T22:28:43.890Z,9.70
2023-02-07T22:31:16.384Z,9.30
2023-02-07T22:33:43.330Z,10.63
2023-02-07T22:36:22.146Z,10.15
2023-02-07T22:38:49.367Z,10.07
2023-02-07T22:41:17.281Z,11.02
2023-02-07T22:43:44.290Z,9.32
2023-02-07T22:46:18.161Z,11.00
2023-02-07T22:48:45.550Z,10.35
2023-02-07T22:51:12.587Z,10.77
2023-02-07T22:53:39.850Z,11.30
2023-02-07T22:56:07.132Z,10.35
2023-02-07T22:58:34.114Z,10.00
2023-02-07T23:01:00.805Z,10.88
2023-02-07T23:03:27.883Z,10.68
2023-02-07T23:05:54.650Z,10.90
2023-02-07T23:08:21.395Z,9.85
2023-02-07T23:10:48.132Z,10.93
2023-02-07T23:13:14.924Z,11.05
2023-02-07T23:15:46.757Z,9.27
2023-02-07T23:18:15.572Z,9.60
2023-02-07T23:20:44.441Z,9.90
2023-02-07T23:23:12.799Z,10.27
2023-02-07T23:25:44.753Z,10.50
2023-02-07T23:28:12.914Z,9.77
2023-02-07T23:30:40.968Z,10.65
2023-02-07T23:33:09.345Z,11.55
2023-02-07T23:35:36.655Z,10.30
2023-02-07T23:38:03.924Z,10.43
2023-02-07T23:40:30.825Z,10.27
2023-02-07T23:42:57.622Z,10.38
2023-02-07T23:45:25.112Z,10.55
2023-02-07T23:47:51.884Z,9.88
2023-02-07T23:50:18.708Z,9.93
2023-02-07T23:52:45.761Z,10.00
2023-02-07T23:55:12.657Z,10.40
2023-02-07T23:57:39.436Z,10.43
